Latest Weather Observations for Roma

IDQ60801

Issued at 9:43 am EST Tuesday 7 December 2021 (issued every 10 minutes, with the page automatically refreshed every 10 minutes)

About weather observations | Map of weather stations | Latest weather observations for QLD | Other Formats
Station Details ID: 043091 Name: ROMA AIRPORT Lat: -26.55 Lon: 148.77 Height: 307.38 m
Data from the previous 72 hours. | See also: Recent months at Roma
Date/Time
EST
Temp
°C
App
Temp
°C
Dew
Point
°C
Rel
Hum
%
Delta-T
°C
Wind Press
QNH
hPa
Press
MSL
hPa
Rain since
9am
mm
Dir  Spd
km/h
Gust
km/h
Spd
kts
Gust
kts
07/09:30am 25.8 27.4 22.9 84 2.0 N 19 24 10 13 1013.9 1012.0 0.0
07/09:00am 25.1 25.8 22.2 84 2.0 N 22 28 12 15 1014.0 1012.1 25.6
07/08:30am 24.6 25.6 22.1 86 1.7 N 20 30 11 16 1013.9 1012.0 25.6
07/08:00am 22.9 23.7 21.7 93 0.8 NNE 20 28 11 15 1014.2 1012.3 25.6
07/07:30am 22.3 23.3 21.8 97 0.3 NNE 19 26 10 14 1014.2 1012.3 25.6
07/07:00am 21.2 23.3 21.0 99 0.1 N 11 15 6 8 1014.4 1012.5 25.6
07/06:30am 20.2 22.7 20.2 100 0.0 N 7 9 4 5 1014.3 1012.4 25.6
07/06:00am 19.2 21.4 19.2 100 0.0 NNE 6 9 3 5 1013.8 1011.8 25.6
07/05:30am 17.7 19.2 17.7 100 0.0 N 6 7 3 4 1013.7 1011.7 25.6
07/05:00am 17.5 19.0 17.5 100 0.0 ENE 6 6 3 3 1012.7 1010.8 25.6
07/04:30am 17.6 19.9 17.6 100 0.0 ENE 2 7 1 4 1012.4 1010.5 25.6
07/04:00am 18.1 21.0 18.1 100 0.0 CALM 0 0 0 0 1012.1 1010.2 25.6
07/03:30am 18.4 21.4 18.4 100 0.0 CALM 0 0 0 0 1011.9 1010.0 25.6
07/03:00am 18.5 21.5 18.5 100 0.0 CALM 0 0 0 0 1011.7 1009.8 25.6
07/02:30am 18.7 20.5 18.7 100 0.0 NE 7 11 4 6 1011.7 1009.8 25.6
07/02:00am 18.7 20.1 18.7 100 0.0 NNE 9 13 5 7 1011.8 1009.9 25.6
07/01:30am 18.7 19.7 18.7 100 0.0 N 11 15 6 8 1012.0 1010.1 25.6
07/01:00am 18.5 18.7 18.5 100 0.0 NNE 15 20 8 11 1012.5 1010.6 25.6
07/12:30am 18.6 18.8 18.6 100 0.0 NNE 15 19 8 10 1013.5 1011.6 25.6
07/12:00am 18.5 19.8 18.5 100 0.0 N 9 11 5 6 1014.9 1013.0 25.4
 
Date/Time
EST
Temp
°C
App
Temp
°C
Dew
Point
°C
Rel
Hum
%
Delta-T
°C
Wind Press
QNH
hPa
Press
MSL
hPa
Rain since
9am
mm
Dir  Spd
km/h
Gust
km/h
Spd
kts
Gust
kts
06/11:30pm 18.5 19.8 18.5 100 0.0 N 9 13 5 7 1015.5 1013.6 25.2
06/11:00pm 18.4 18.8 18.2 99 0.1 NW 13 17 7 9 1016.2 1014.3 25.2
06/10:30pm 18.6 18.4 18.4 99 0.1 NW 17 20 9 11 1016.1 1014.2 25.2
06/10:00pm 18.6 19.1 18.4 99 0.1 NNW 13 15 7 8 1016.1 1014.2 25.0
06/09:30pm 18.6 19.1 18.4 99 0.1 N 13 15 7 8 1015.9 1014.0 25.0
06/09:00pm 18.7 20.2 18.0 96 0.4 NE 7 9 4 5 1015.5 1013.6 25.0
06/08:30pm 18.7 18.5 17.5 93 0.7 ENE 15 22 8 12 1014.6 1012.7 25.0
06/08:00pm 18.5 17.1 18.0 97 0.3 ENE 22 33 12 18 1013.5 1011.6 25.0
06/07:30pm 18.5 17.7 18.5 100 0.0 E 20 28 11 15 1014.2 1012.3 25.0
06/07:00pm 19.1 19.2 19.1 100 0.0 E 17 22 9 12 1015.2 1013.3 23.8
06/06:49pm 19.6 20.7 19.6 100 0.0 ENE 13 17 7 9 1015.4 1013.5 22.4
06/06:30pm 19.6 22.4 19.6 100 0.0 W 4 7 2 4 1015.6 1013.7 20.6
06/06:00pm 19.4 20.7 19.4 100 0.0 WSW 11 13 6 7 1015.3 1013.4 17.8
06/05:51pm 19.4 21.1 19.4 100 0.0 WSW 9 11 5 6 1015.2 1013.3 17.2
06/05:41pm 19.6 21.4 19.6 100 0.0 WSW 9 11 5 6 1014.9 1013.0 16.2
06/05:31pm 19.7 21.2 19.7 100 0.0 SSW 11 17 6 9 1014.3 1012.4 15.4
06/05:30pm 19.7 21.2 19.7 100 0.0 SSW 11 17 6 9 1014.3 1012.4 15.4
06/05:12pm 19.3 20.2 19.3 100 0.0 S 13 20 7 11 1013.8 1011.8 14.2
06/05:11pm 19.2 20.1 19.2 100 0.0 S 13 20 7 11 1013.8 1011.8 13.6
06/05:00pm 19.0 20.5 19.0 100 0.0 WSW 9 15 5 8 1013.7 1011.7 12.6
06/04:49pm 18.8 19.5 18.8 100 0.0 SW 13 30 7 16 1013.9 1012.0 11.2
06/04:35pm 19.1 16.9 18.6 97 0.3 WSW 28 52 15 28 1013.7 1011.7 5.6
06/04:30pm 20.4 19.1 19.1 92 0.8 NNW 24 52 13 28 1013.4 1011.5 4.6
06/04:19pm 22.0 22.1 21.2 95 0.5 N 22 28 12 15 1011.4 1009.5 3.2
06/04:00pm 25.2 28.9 22.3 84 2.0 ENE 6 11 3 6 1011.7 1009.8 0.8
06/03:58pm 25.2 28.4 21.3 79 2.6 ENE 6 15 3 8 1011.6 1009.7 0.6
06/03:30pm 27.0 27.6 19.4 63 5.0 E 15 22 8 12 1011.4 1009.5 0.0
06/03:22pm 27.2 27.8 19.5 62 5.0 E 15 22 8 12 1011.4 1009.5 0.0
06/03:00pm 27.3 28.7 19.6 62 5.1 E 11 17 6 9 1011.3 1009.4 0.0
06/02:30pm 27.0 27.7 19.6 64 4.9 NE 15 24 8 13 1011.4 1009.5 0.0
06/02:00pm 26.8 27.0 19.4 64 4.8 NNE 17 26 9 14 1011.8 1009.9 0.0
06/01:30pm 27.5 28.5 20.3 65 4.8 NNE 15 20 8 11 1012.3 1010.4 0.0
06/01:00pm 27.4 28.0 20.2 65 4.8 NNE 17 26 9 14 1013.1 1011.2 0.0
06/12:30pm 28.0 28.8 21.3 67 4.5 NNE 19 26 10 14 1013.5 1011.6 0.0
06/12:00pm 27.3 27.7 20.6 67 4.5 NNE 19 26 10 14 1014.2 1012.3 0.0
06/11:30am 26.5 25.7 20.1 68 4.2 NNE 24 32 13 17 1014.4 1012.5 0.0
06/11:00am 26.9 27.0 20.3 67 4.4 NNE 20 30 11 16 1014.6 1012.7 0.0
06/10:30am 26.0 25.3 19.6 68 4.2 NNE 22 33 12 18 1014.5 1012.6 0.0
06/10:00am 25.1 23.5 19.2 70 3.8 NE 26 33 14 18 1014.7 1012.8 0.0
06/09:30am 25.4 23.9 19.5 70 3.8 NNE 26 33 14 18 1015.0 1013.1 0.0
06/09:00am 24.3 22.6 18.9 72 3.5 NE 26 37 14 20 1015.5 1013.6 0.0
06/08:30am 24.5 23.3 19.3 73 3.4 NE 24 35 13 19 1014.9 1013.0 0.0
06/08:00am 24.2 22.6 19.1 73 3.3 NE 26 35 14 19 1014.6 1012.7 0.0
06/07:30am 23.5 21.9 19.2 77 2.8 NNE 26 33 14 18 1014.7 1012.8 0.0
06/07:00am 22.5 21.3 18.5 78 2.5 NE 22 32 12 17 1014.3 1012.4 0.0
06/06:30am 21.6 19.9 18.2 81 2.1 NE 24 32 13 17 1014.2 1012.3 0.0
06/06:00am 20.8 20.2 18.9 89 1.2 NE 20 28 11 15 1014.0 1012.1 0.0
06/05:30am 20.2 19.8 19.0 93 0.8 NE 19 24 10 13 1013.8 1011.8 0.0
06/05:00am 19.9 20.0 19.2 96 0.4 NE 17 24 9 13 1013.2 1011.3 0.0
06/04:30am 20.2 20.4 19.4 95 0.5 ENE 17 20 9 11 1012.9 1011.0 0.0
06/04:00am 20.6 20.4 19.3 92 0.8 NE 19 24 10 13 1012.8 1010.9 0.0
06/03:30am 20.9 21.6 19.6 92 0.8 NE 15 20 8 11 1012.7 1010.8 0.0
06/03:00am 20.8 22.0 20.0 95 0.5 NE 13 20 7 11 1012.6 1010.7 0.0
06/02:30am 20.8 21.9 19.6 93 0.8 NE 13 19 7 10 1012.5 1010.6 0.0
06/02:00am 21.6 22.0 19.9 90 1.1 NE 17 22 9 12 1012.5 1010.6 0.0
06/01:30am 21.8 21.7 19.5 87 1.5 NE 19 24 10 13 1012.5 1010.6 0.0
06/01:00am 22.4 20.5 19.4 83 1.9 NE 28 39 15 21 1012.4 1010.5 0.0
06/12:30am 22.6 21.0 19.2 81 2.2 NE 26 37 14 20 1012.7 1010.8 0.0
06/12:00am 22.8 21.6 19.2 80 2.3 NE 24 35 13 19 1012.7 1010.8 0.0
 
Date/Time
EST
Temp
°C
App
Temp
°C
Dew
Point
°C
Rel
Hum
%
Delta-T
°C
Wind Press
QNH
hPa
Press
MSL
hPa
Rain since
9am
mm
Dir  Spd
km/h
Gust
km/h
Spd
kts
Gust
kts
05/11:30pm 22.7 21.8 19.1 80 2.3 NE 22 30 12 16 1013.0 1011.1 0.0
05/11:00pm 23.0 21.9 18.7 77 2.7 NE 22 30 12 16 1012.9 1011.0 0.0
05/10:30pm 21.0 19.8 15.1 69 3.5 NNE 15 19 8 10 1013.1 1011.2 0.0
05/10:00pm 20.3 19.5 12.8 62 4.3 E 9 17 5 9 1013.0 1011.1 0.0
05/09:30pm 19.1 19.5 15.2 78 2.3 ENE 7 9 4 5 1012.9 1011.0 0.0
05/09:00pm 20.9 21.6 14.5 67 3.8 N 4 6 2 3 1012.6 1010.7 0.0
05/08:30pm 20.5 20.8 15.1 71 3.2 NNE 7 17 4 9 1012.3 1010.4 0.0
05/08:23pm 20.8 22.6 15.6 72 3.1 CALM 0 6 0 3 1012.2 1010.3 0.0
05/08:01pm 23.6 22.6 12.3 49 6.5 SE 9 11 5 6 1011.8 1009.9 0.0
05/08:00pm 23.6 22.6 12.3 49 6.5 SE 9 11 5 6 1011.8 1009.9 0.0
05/07:59pm 23.5 22.7 12.8 51 6.2 SE 9 11 5 6 1011.8 1009.9 0.0
05/07:40pm 23.6 23.1 13.8 54 5.8 SE 9 11 5 6 1011.8 1009.9 0.0
05/07:30pm 23.9 23.4 13.7 52 6.0 ESE 9 13 5 7 1011.8 1009.9 0.0
05/07:00pm 25.9 26.1 14.1 48 7.1 SSW 6 9 3 5 1011.5 1009.6 0.0
05/06:30pm 28.2 29.1 12.9 38 9.1 CALM 0 0 0 0 1011.0 1009.1 0.0
05/06:00pm 30.8 33.0 16.4 42 9.1 CALM 0 0 0 0 1010.6 1008.6 0.0
05/05:30pm 30.9 30.3 11.8 31 11.3 SSW 6 9 3 5 1010.4 1008.4 0.0
05/05:00pm 30.9 30.0 13.7 35 10.5 SSW 11 17 6 9 1010.1 1008.2 0.0
05/04:30pm 30.7 29.9 13.9 36 10.3 SSE 11 20 6 11 1010.1 1008.2 0.0
05/04:00pm 31.2 30.1 12.1 31 11.4 WSW 9 15 5 8 1010.1 1008.2 0.0
05/03:30pm 30.3 29.7 13.6 36 10.1 N 9 17 5 9 1010.4 1008.4 0.0
05/03:00pm 30.8 29.4 12.2 32 11.1 S 11 19 6 10 1010.9 1008.9 0.0
05/02:30pm 31.1 30.4 14.3 36 10.3 WSW 11 17 6 9 1011.4 1009.5 0.0
05/02:00pm 31.3 31.6 14.4 35 10.4 SW 6 11 3 6 1011.6 1009.7 0.0
05/01:30pm 30.7 30.7 16.3 42 9.1 S 11 20 6 11 1011.8 1009.9 0.0
05/01:00pm 30.3 29.6 14.4 38 9.8 ESE 11 20 6 11 1012.1 1010.2 0.0
05/12:30pm 30.3 31.2 15.2 40 9.4 NE 4 9 2 5 1012.4 1010.5 0.0
05/12:00pm 29.6 29.5 13.4 37 9.8 NNE 6 9 3 5 1012.8 1010.9 0.0
05/11:30am 28.8 27.9 12.7 37 9.6 E 9 15 5 8 1013.2 1011.3 0.0
05/11:00am 28.7 28.1 13.4 39 9.2 ESE 9 13 5 7 1013.4 1011.5 0.0
05/10:30am 28.3 27.2 11.8 36 9.7 ESE 9 17 5 9 1013.5 1011.6 0.0
05/10:00am 27.9 27.3 13.4 40 8.7 E 9 17 5 9 1013.9 1012.0 0.0
05/09:30am 27.9 28.2 14.5 44 8.2 SE 6 11 3 6 1014.2 1012.3 0.0
05/09:00am 26.8 27.2 15.2 49 7.1 ENE 7 11 4 6 1014.3 1012.4 0.0
05/08:30am 26.2 25.9 14.3 48 7.2 E 9 15 5 8 1014.3 1012.4 0.0
05/08:00am 25.0 24.0 13.5 48 6.8 ENE 11 17 6 9 1014.2 1012.3 0.0
05/07:30am 23.4 23.3 14.9 59 5.1 NE 9 11 5 6 1013.9 1012.0 0.0
05/07:00am 21.8 22.3 15.6 68 3.8 NE 7 9 4 5 1013.8 1011.8 0.0
05/06:30am 21.7 24.6 18.3 81 2.2 CALM 0 0 0 0 1013.3 1011.4 0.0
05/06:00am 17.9 20.5 17.4 97 0.3 CALM 0 0 0 0 1013.0 1011.1 0.0
05/05:30am 16.0 17.7 15.2 95 0.5 CALM 0 0 0 0 1012.8 1010.9 0.0
05/05:00am 15.9 17.7 15.4 97 0.3 CALM 0 0 0 0 1012.5 1010.6 0.0
05/04:30am 16.4 18.2 15.4 94 0.6 CALM 0 0 0 0 1012.6 1010.7 0.0
05/04:00am 16.5 18.1 15.0 91 0.9 CALM 0 0 0 0 1012.3 1010.4 0.0
05/03:30am 16.0 15.7 14.4 90 0.9 WSW 9 9 5 5 1012.1 1010.2 0.0
05/03:00am 17.3 17.0 14.4 83 1.7 SSW 9 11 5 6 1012.0 1010.1 0.0
05/02:30am 18.2 18.2 13.7 75 2.6 SSW 6 7 3 4 1012.0 1010.1 0.0
05/02:00am 18.7 18.6 13.3 71 3.1 SSW 6 7 3 4 1012.1 1010.2 0.0
05/01:30am 18.7 18.2 13.8 73 2.8 S 9 11 5 6 1012.1 1010.2 0.0
05/01:00am 20.0 19.0 13.5 66 3.8 S 11 13 6 7 1012.3 1010.4 0.0
05/12:30am 20.0 19.9 13.9 68 3.6 S 7 7 4 4 1012.7 1010.8 0.0
05/12:00am 22.2 20.2 12.7 55 5.5 S 15 19 8 10 1012.9 1011.0 0.0
 
Date/Time
EST
Temp
°C
App
Temp
°C
Dew
Point
°C
Rel
Hum
%
Delta-T
°C
Wind Press
QNH
hPa
Press
MSL
hPa
Rain since
9am
mm
Dir  Spd
km/h
Gust
km/h
Spd
kts
Gust
kts
04/11:30pm 22.1 20.7 13.5 58 5.0 S 13 17 7 9 1012.9 1011.0 0.0
04/11:00pm 22.4 21.0 13.5 57 5.2 SSE 13 15 7 8 1012.9 1011.0 0.0
04/10:30pm 23.2 21.3 13.1 53 5.9 SSE 15 17 8 9 1012.7 1010.8 0.0
04/10:00pm 24.5 22.7 13.4 50 6.6 S 15 19 8 10 1012.4 1010.5 0.0
04/09:30pm 22.7 22.5 15.8 65 4.2 S 11 13 6 7 1012.1 1010.2 0.0
04/09:00pm 23.3 23.4 16.4 65 4.3 SSW 11 13 6 7 1011.8 1009.9 0.0
04/08:30pm 23.8 24.0 16.8 65 4.4 SSW 11 13 6 7 1011.5 1009.6 0.0
04/08:00pm 23.9 24.2 16.9 65 4.4 SSW 11 11 6 6 1011.2 1009.3 0.0
04/07:30pm 24.6 24.9 17.1 63 4.7 SSW 11 13 6 7 1010.7 1008.7 0.0
04/07:00pm 26.5 26.5 17.3 57 5.8 SSW 13 15 7 8 1010.4 1008.4 0.0
04/06:30pm 29.6 30.5 18.4 51 7.3 S 11 15 6 8 1009.9 1008.0 0.0
04/06:00pm 31.5 31.3 18.5 46 8.5 SSW 17 22 9 12 1009.6 1007.7 0.0
04/05:30pm 32.7 32.3 18.8 43 9.2 S 19 26 10 14 1009.5 1007.6 0.0
04/05:00pm 33.3 33.8 20.8 48 8.5 SSW 19 30 10 16 1009.4 1007.5 0.0
04/04:30pm 33.6 32.4 19.3 43 9.5 SSW 24 35 13 19 1009.4 1007.5 0.0
04/04:00pm 34.0 32.8 19.3 42 9.8 SSW 24 32 13 17 1009.5 1007.6 0.0
04/03:30pm 33.2 33.5 20.7 47 8.5 SW 20 28 11 15 1009.8 1007.9 0.0
04/03:00pm 33.6 34.2 21.4 48 8.4 WSW 20 26 11 14 1010.3 1008.3 0.0
04/02:30pm 33.1 33.8 21.6 51 7.9 SSW 20 26 11 14 1010.7 1008.7 0.0
04/02:00pm 33.4 33.8 20.9 48 8.5 SW 20 30 11 16 1010.9 1008.9 0.0
04/01:30pm 33.9 35.2 22.3 50 8.0 SW 19 30 10 16 1011.2 1009.3 0.0
04/01:00pm 33.8 35.6 23.2 54 7.4 WSW 19 28 10 15 1011.7 1009.8 0.0
04/12:30pm 33.9 35.9 23.0 53 7.6 WSW 17 28 9 15 1012.1 1010.2 0.0
04/12:00pm 33.6 36.9 23.9 57 6.8 W 13 20 7 11 1012.4 1010.5 0.0
04/11:30am 32.8 36.2 23.4 57 6.6 W 11 19 6 10 1012.8 1010.9 0.0
04/11:00am 32.4 35.9 22.2 55 7.0 W 7 13 4 7 1013.1 1011.2 0.0
04/10:30am 31.7 35.9 23.5 62 5.7 NW 7 13 4 7 1013.5 1011.6 0.0
04/10:00am 31.0 35.1 23.9 66 5.0 N 9 13 5 7 1013.8 1011.8 0.0

Other formats

Comma delimited format used in spreadsheet applications
http://www.bom.gov.au/fwo/IDQ60801/IDQ60801.94515.axf

JavaScript Object Notation format (JSON) in row-major order
http://www.bom.gov.au/fwo/IDQ60801/IDQ60801.94515.json

Data quality

Most of these data are generated automatically and are frequently updated. Quality checks on data are not normally performed. It is possible for incorrect values to appear. Refer to information at About Latest Weather Observations and please check the disclaimer before using these data.